createdAt,value
2022-08-08T00:00:56.388Z,99632.72
2022-08-08T00:02:43.384Z,99629.44
2022-08-08T00:05:09.799Z,99635.34
2022-08-08T00:07:20.575Z,99635.47
2022-08-08T00:09:40.921Z,99625.81
2022-08-08T00:12:07.104Z,99635.28
2022-08-08T00:14:48.047Z,99635.28
2022-08-08T00:17:23.917Z,99628.63
2022-08-08T00:19:28.107Z,99637.41
2022-08-08T00:21:39.552Z,99633.03
2022-08-08T00:23:51.831Z,99631.53
2022-08-08T00:25:58.749Z,99627.91
2022-08-08T00:28:05.707Z,99638.31
2022-08-08T00:30:35.491Z,99638.69
2022-08-08T00:32:50.620Z,99632.00
2022-08-08T00:35:20.375Z,99639.66
2022-08-08T00:37:48.015Z,99625.78
2022-08-08T00:41:10.392Z,99629.88
2022-08-08T00:43:18.539Z,99632.69
2022-08-08T00:46:03.449Z,99622.53
2022-08-08T00:48:36.032Z,99618.78
2022-08-08T00:50:52.295Z,99620.69
2022-08-08T00:53:29.473Z,99621.53
2022-08-08T00:55:54.671Z,99624.91
2022-08-08T00:58:16.827Z,99623.66
2022-08-08T01:00:22.434Z,99622.78
2022-08-08T01:03:58.262Z,99628.53
2022-08-08T01:05:59.710Z,99641.44
2022-08-08T01:08:35.210Z,99643.09
2022-08-08T01:10:57.517Z,99638.50
2022-08-08T01:13:52.569Z,99638.28
2022-08-08T01:16:01.362Z,99632.13
2022-08-08T01:18:52.809Z,99630.56
2022-08-08T01:22:03.701Z,99627.34
2022-08-08T01:24:26.242Z,99620.03
2022-08-08T01:27:10.777Z,99618.13
2022-08-08T01:29:59.216Z,99619.88
2022-08-08T01:32:17.394Z,99623.75
2022-08-08T01:34:39.945Z,99618.69
2022-08-08T01:37:13.858Z,99615.94
2022-08-08T01:39:41.968Z,99612.03
2022-08-08T01:42:36.125Z,99616.94
2022-08-08T01:44:50.674Z,99616.94
2022-08-08T01:48:16.812Z,99631.91
2022-08-08T01:49:53.625Z,99616.88
2022-08-08T01:54:12.335Z,99624.31
2022-08-08T01:55:26.039Z,99617.09
2022-08-08T01:58:12.265Z,99614.47
2022-08-08T02:00:34.459Z,99609.59
2022-08-08T02:03:00.216Z,99616.72
2022-08-08T02:05:20.396Z,99601.28
2022-08-08T02:07:41.747Z,99602.69
2022-08-08T02:10:11.725Z,99597.56
2022-08-08T02:12:47.399Z,99601.56
2022-08-08T02:15:05.099Z,99593.00
2022-08-08T02:17:25.197Z,99599.66
2022-08-08T02:20:07.534Z,99600.53
2022-08-08T02:22:31.324Z,99605.88
2022-08-08T02:24:52.156Z,99608.78
2022-08-08T02:27:12.191Z,99611.63
2022-08-08T02:29:53.122Z,99616.41
2022-08-08T02:32:44.903Z,99622.84
2022-08-08T02:35:08.527Z,99619.63
2022-08-08T02:37:51.285Z,99622.53
2022-08-08T02:40:34.152Z,99621.66
2022-08-08T02:42:42.376Z,99627.88
2022-08-08T02:45:51.600Z,99630.22
2022-08-08T02:48:45.332Z,99633.53
2022-08-08T02:51:14.194Z,99631.91
2022-08-08T02:53:53.897Z,99635.38
2022-08-08T02:56:36.167Z,99630.47
2022-08-08T02:59:05.894Z,99630.88
2022-08-08T03:01:53.765Z,99637.41
2022-08-08T03:05:03.518Z,99634.47
2022-08-08T03:07:13.817Z,99637.22
2022-08-08T03:09:41.350Z,99641.56
2022-08-08T03:12:36.867Z,99637.13
2022-08-08T03:15:59.348Z,99633.53
2022-08-08T03:18:05.188Z,99644.84
2022-08-08T03:20:13.498Z,99645.25
2022-08-08T03:22:38.765Z,99646.81
2022-08-08T03:24:41.219Z,99647.41
2022-08-08T03:27:12.233Z,99654.69
2022-08-08T03:29:27.042Z,99661.63
2022-08-08T03:32:06.207Z,99660.19
2022-08-08T03:34:14.257Z,99659.63
2022-08-08T03:36:19.793Z,99668.75
2022-08-08T03:38:57.778Z,99659.78
2022-08-08T03:40:53.618Z,99656.59
2022-08-08T03:43:18.171Z,99659.91
2022-08-08T03:46:05.788Z,99659.50
2022-08-08T03:47:58.904Z,99658.63
2022-08-08T03:50:02.560Z,99650.97
2022-08-08T03:52:13.968Z,99662.09
2022-08-08T03:54:41.138Z,99665.00
2022-08-08T03:56:42.328Z,99666.44
2022-08-08T03:58:53.232Z,99673.41
2022-08-08T04:01:20.867Z,99675.72
2022-08-08T04:03:19.271Z,99672.53
2022-08-08T04:05:49.586Z,99677.19
2022-08-08T04:07:53.925Z,99680.66
2022-08-08T04:10:03.003Z,99674.00
2022-08-08T04:12:08.012Z,99676.19
2022-08-08T04:14:33.839Z,99684.56
2022-08-08T04:16:38.990Z,99684.44
2022-08-08T04:18:48.705Z,99685.31
2022-08-08T04:20:55.263Z,99692.81
2022-08-08T04:22:58.337Z,99695.00
2022-08-08T04:25:02.325Z,99689.78
2022-08-08T04:27:07.622Z,99694.09
2022-08-08T04:29:12.834Z,99699.19
2022-08-08T04:31:56.756Z,99692.38
2022-08-08T04:33:41.892Z,99692.22
2022-08-08T04:35:51.311Z,99687.31
2022-08-08T04:37:55.699Z,99679.34
2022-08-08T04:40:07.871Z,99676.75
2022-08-08T04:42:19.384Z,99688.00
2022-08-08T04:44:21.881Z,99683.41
2022-08-08T04:46:31.084Z,99685.13
2022-08-08T04:48:34.037Z,99678.44
2022-08-08T04:50:38.469Z,99683.66
2022-08-08T04:52:48.511Z,99678.59
2022-08-08T04:54:56.397Z,99680.03
2022-08-08T04:56:58.471Z,99681.19
2022-08-08T04:59:00.919Z,99689.03
2022-08-08T05:01:08.962Z,99688.44
2022-08-08T05:03:18.928Z,99689.03
2022-08-08T05:05:44.887Z,99683.53
2022-08-08T05:07:49.158Z,99686.41
2022-08-08T05:09:52.768Z,99686.25
2022-08-08T05:11:57.777Z,99695.94
2022-08-08T05:14:03.171Z,99690.97
2022-08-08T05:16:51.793Z,99696.13
2022-08-08T05:18:30.726Z,99695.97
2022-08-08T05:20:33.651Z,99697.34
2022-08-08T05:22:37.491Z,99698.72
2022-08-08T05:24:40.459Z,99705.34
2022-08-08T05:26:46.451Z,99704.50
2022-08-08T05:28:57.587Z,99712.72
2022-08-08T05:31:08.793Z,99705.56
2022-08-08T05:33:44.049Z,99715.63
2022-08-08T05:35:54.887Z,99709.34
2022-08-08T05:38:30.127Z,99713.59
2022-08-08T05:40:36.602Z,99710.38
2022-08-08T05:42:45.232Z,99719.66
2022-08-08T05:44:51.542Z,99713.41
2022-08-08T05:47:02.938Z,99719.56
2022-08-08T05:49:11.268Z,99719.25
2022-08-08T05:51:16.270Z,99728.75
2022-08-08T05:54:24.265Z,99726.38
2022-08-08T05:56:11.419Z,99718.69
2022-08-08T05:58:17.947Z,99722.09
2022-08-08T06:00:25.727Z,99722.00
2022-08-08T06:02:54.253Z,99718.72
2022-08-08T06:05:03.163Z,99713.25
2022-08-08T06:07:25.553Z,99721.56
2022-08-08T06:10:00.491Z,99725.22
2022-08-08T06:12:00.749Z,99724.09
2022-08-08T06:14:07.648Z,99726.97
2022-08-08T06:16:15.931Z,99719.94
2022-08-08T06:18:38.125Z,99722.56
2022-08-08T06:20:44.474Z,99722.91
2022-08-08T06:22:51.653Z,99729.53
2022-08-08T06:24:56.922Z,99722.81
2022-08-08T06:27:04.947Z,99731.47
2022-08-08T06:29:10.746Z,99730.00
2022-08-08T06:32:08.953Z,99726.03
2022-08-08T06:34:27.496Z,99727.78
2022-08-08T06:36:41.747Z,99734.53
2022-08-08T06:39:00.000Z,99727.81
2022-08-08T06:41:13.488Z,99729.00
2022-08-08T06:43:28.816Z,99735.41
2022-08-08T06:45:39.299Z,99734.75
2022-08-08T06:47:52.549Z,99734.72
2022-08-08T06:50:05.596Z,99730.94
2022-08-08T06:52:08.213Z,99736.13
2022-08-08T06:54:10.894Z,99728.66
2022-08-08T06:56:16.568Z,99725.75
2022-08-08T06:58:19.373Z,99721.91
2022-08-08T07:00:30.638Z,99724.84
2022-08-08T07:02:36.403Z,99725.19
2022-08-08T07:04:53.674Z,99723.56
2022-08-08T07:07:10.681Z,99722.00
2022-08-08T07:09:20.910Z,99718.88
2022-08-08T07:11:30.608Z,99722.31
2022-08-08T07:14:00.973Z,99725.19
2022-08-08T07:16:28.987Z,99730.91
2022-08-08T07:18:50.206Z,99727.03
2022-08-08T07:20:57.540Z,99728.59
2022-08-08T07:23:16.280Z,99728.53
2022-08-08T07:25:29.422Z,99731.50
2022-08-08T07:28:02.334Z,99728.66
2022-08-08T07:30:13.749Z,99734.53
2022-08-08T07:32:22.171Z,99736.56
2022-08-08T07:34:31.532Z,99735.00
2022-08-08T07:36:37.400Z,99737.84
2022-08-08T07:38:53.375Z,99729.06
2022-08-08T07:41:04.777Z,99734.44
2022-08-08T07:43:11.889Z,99735.41
2022-08-08T07:45:26.417Z,99738.97
2022-08-08T07:47:38.742Z,99731.63
2022-08-08T07:49:46.114Z,99735.50
2022-08-08T07:51:53.049Z,99739.41
2022-08-08T07:54:26.692Z,99739.53
2022-08-08T07:56:44.918Z,99732.63
2022-08-08T07:58:50.400Z,99735.22
2022-08-08T08:00:59.982Z,99733.31
2022-08-08T08:03:20.491Z,99734.38
2022-08-08T08:05:33.428Z,99735.97
2022-08-08T08:07:41.195Z,99741.31
2022-08-08T08:09:49.078Z,99737.47
2022-08-08T08:11:52.741Z,99734.22
2022-08-08T08:14:09.622Z,99732.84
2022-08-08T08:16:32.251Z,99742.31
2022-08-08T08:18:55.609Z,99732.03
2022-08-08T08:21:03.302Z,99726.06
2022-08-08T08:23:15.836Z,99742.19
2022-08-08T08:25:43.595Z,99738.81
2022-08-08T08:27:46.883Z,99729.47
2022-08-08T08:29:51.901Z,99726.16
2022-08-08T08:31:57.430Z,99730.53
2022-08-08T08:34:02.536Z,99734.91
2022-08-08T08:36:20.281Z,99731.56
2022-08-08T08:38:24.708Z,99728.03
2022-08-08T08:40:36.352Z,99730.09
2022-08-08T08:42:42.150Z,99733.38
2022-08-08T08:44:49.495Z,99732.78
2022-08-08T08:46:58.851Z,99732.84
2022-08-08T08:49:02.138Z,99736.91
2022-08-08T08:51:11.264Z,99743.81
2022-08-08T08:53:27.608Z,99738.28
2022-08-08T08:55:49.447Z,99733.84
2022-08-08T08:57:55.869Z,99734.78
2022-08-08T09:00:05.652Z,99736.31
2022-08-08T09:02:20.866Z,99730.06
2022-08-08T09:04:31.727Z,99734.19
2022-08-08T09:06:53.581Z,99732.47
2022-08-08T09:09:35.413Z,99734.44
2022-08-08T09:12:01.527Z,99729.56
2022-08-08T09:14:08.980Z,99723.53
2022-08-08T09:16:13.887Z,99724.44
2022-08-08T09:18:18.085Z,99729.81
2022-08-08T09:22:04.773Z,99719.94
2022-08-08T09:22:45.079Z,99722.72
2022-08-08T09:24:48.863Z,99721.88
2022-08-08T09:27:02.690Z,99714.78
2022-08-08T09:29:09.400Z,99722.72
2022-08-08T09:31:20.428Z,99716.31
2022-08-08T09:34:16.008Z,99718.91
2022-08-08T09:35:52.283Z,99713.78
2022-08-08T09:38:04.204Z,99715.06
2022-08-08T09:40:14.792Z,99714.84
2022-08-08T09:42:27.203Z,99711.19
2022-08-08T09:44:34.208Z,99714.84
2022-08-08T09:46:45.481Z,99709.69
2022-08-08T09:49:18.160Z,99706.22
2022-08-08T09:51:30.552Z,99710.97
2022-08-08T09:54:06.902Z,99704.75
2022-08-08T09:56:21.831Z,99706.03
2022-08-08T09:58:40.821Z,99707.53
2022-08-08T10:00:53.580Z,99714.38
2022-08-08T10:03:03.904Z,99715.69
2022-08-08T10:05:14.495Z,99705.34
2022-08-08T10:07:17.555Z,99701.94
2022-08-08T10:09:35.742Z,99709.88
2022-08-08T10:12:26.037Z,99698.91
2022-08-08T10:14:28.139Z,99699.13
2022-08-08T10:16:39.706Z,99696.56
2022-08-08T10:18:41.618Z,99700.63
2022-08-08T10:20:57.408Z,99698.25
2022-08-08T10:23:02.429Z,99691.13
2022-08-08T10:25:07.299Z,99694.38
2022-08-08T10:27:20.522Z,99691.13
2022-08-08T10:29:57.080Z,99678.84
2022-08-08T10:32:21.748Z,99686.19
2022-08-08T10:34:28.649Z,99681.88
2022-08-08T10:36:32.105Z,99677.59
2022-08-08T10:38:38.129Z,99678.91
2022-08-08T10:40:45.776Z,99677.84
2022-08-08T10:42:49.868Z,99680.19
2022-08-08T10:45:01.733Z,99675.88
2022-08-08T10:47:14.102Z,99657.97
2022-08-08T10:50:00.515Z,99662.88
2022-08-08T10:51:51.550Z,99663.28
2022-08-08T10:53:57.315Z,99656.34
2022-08-08T10:56:00.939Z,99665.31
2022-08-08T10:58:09.192Z,99656.69
2022-08-08T11:00:13.966Z,99655.38
2022-08-08T11:02:28.712Z,99660.09
2022-08-08T11:04:39.217Z,99653.66
2022-08-08T11:06:47.505Z,99656.88
2022-08-08T11:09:01.051Z,99660.50
2022-08-08T11:11:08.132Z,99657.31
2022-08-08T11:13:28.589Z,99657.38
2022-08-08T11:15:32.016Z,99648.41
2022-08-08T11:18:00.816Z,99654.22
2022-08-08T11:19:56.578Z,99649.47
2022-08-08T11:21:58.865Z,99650.94
2022-08-08T11:24:05.645Z,99642.72
2022-08-08T11:26:07.608Z,99642.00
2022-08-08T11:28:13.343Z,99634.91
2022-08-08T11:30:19.946Z,99637.03
2022-08-08T11:32:31.346Z,99627.72
2022-08-08T11:34:52.460Z,99622.94
2022-08-08T11:37:00.951Z,99624.44
2022-08-08T11:39:20.014Z,99622.47
2022-08-08T11:41:24.535Z,99630.25
2022-08-08T11:43:38.994Z,99625.31
2022-08-08T11:46:09.142Z,99628.19
2022-08-08T11:48:09.732Z,99616.94
2022-08-08T11:50:23.484Z,99628.13
2022-08-08T11:52:31.633Z,99630.50
2022-08-08T11:54:38.089Z,99625.31
2022-08-08T11:56:46.533Z,99621.28
2022-08-08T11:59:07.368Z,99622.13
2022-08-08T12:01:16.176Z,99621.22
2022-08-08T12:03:34.205Z,99628.03
2022-08-08T12:05:38.851Z,99619.75
2022-08-08T12:07:59.005Z,99625.13
2022-08-08T12:10:11.076Z,99623.16
2022-08-08T12:12:28.572Z,99628.94
2022-08-08T12:14:30.980Z,99622.63
2022-08-08T12:16:46.554Z,99619.66
2022-08-08T12:18:51.390Z,99612.81
2022-08-08T12:20:58.759Z,99608.16
2022-08-08T12:23:01.732Z,99611.28
2022-08-08T12:25:05.885Z,99611.50
2022-08-08T12:27:18.275Z,99616.69
2022-08-08T12:29:40.309Z,99610.34
2022-08-08T12:31:53.502Z,99614.78
2022-08-08T12:34:02.221Z,99620.13
2022-08-08T12:36:14.681Z,99618.13
2022-08-08T12:38:18.810Z,99620.75
2022-08-08T12:40:22.593Z,99619.91
2022-08-08T12:42:33.095Z,99620.75
2022-08-08T12:44:36.863Z,99621.84
2022-08-08T12:46:41.128Z,99614.94
2022-08-08T12:49:22.228Z,99615.81
2022-08-08T12:51:21.773Z,99614.97
2022-08-08T12:53:36.524Z,99602.47
2022-08-08T12:56:18.313Z,99599.81
2022-08-08T12:58:27.295Z,99603.63
2022-08-08T13:00:34.108Z,99592.22
2022-08-08T13:02:51.598Z,99590.44
2022-08-08T13:04:57.831Z,99588.94
2022-08-08T13:07:04.920Z,99599.03
2022-08-08T13:09:10.558Z,99601.72
2022-08-08T13:11:21.791Z,99595.06
2022-08-08T13:13:37.194Z,99603.88
2022-08-08T13:15:39.312Z,99597.94
2022-08-08T13:18:08.672Z,99596.06
2022-08-08T13:20:11.536Z,99595.22
2022-08-08T13:22:18.672Z,99605.94
2022-08-08T13:24:40.754Z,99611.31
2022-08-08T13:26:46.979Z,99602.94
2022-08-08T13:28:50.521Z,99608.03
2022-08-08T13:30:52.424Z,99617.00
2022-08-08T13:33:01.236Z,99612.94
2022-08-08T13:35:11.672Z,99608.63
2022-08-08T13:38:03.142Z,99618.06
2022-08-08T13:39:51.673Z,99615.09
2022-08-08T13:42:01.345Z,99620.84
2022-08-08T13:44:03.536Z,99631.28
2022-08-08T13:46:26.399Z,99631.63
2022-08-08T13:48:29.382Z,99627.03
2022-08-08T13:50:49.149Z,99633.66
2022-08-08T13:52:54.844Z,99627.94
2022-08-08T13:55:00.426Z,99627.94
2022-08-08T13:57:08.504Z,99628.19
2022-08-08T13:59:10.859Z,99620.94
2022-08-08T14:01:17.111Z,99621.56
2022-08-08T14:03:52.680Z,99624.81
2022-08-08T14:06:01.295Z,99635.06
2022-08-08T14:08:16.897Z,99625.69
2022-08-08T14:10:33.463Z,99634.19
2022-08-08T14:12:45.903Z,99649.41
2022-08-08T14:14:47.700Z,99635.38
2022-08-08T14:16:50.532Z,99631.59
2022-08-08T14:19:01.069Z,99642.72
2022-08-08T14:21:08.058Z,99644.91
2022-08-08T14:23:20.727Z,99645.03
2022-08-08T14:25:44.994Z,99652.28
2022-08-08T14:27:59.691Z,99650.56
2022-08-08T14:30:17.856Z,99654.63
2022-08-08T14:32:29.852Z,99665.75
2022-08-08T14:34:37.290Z,99659.69
2022-08-08T14:36:40.761Z,99646.81
2022-08-08T14:38:58.635Z,99661.13
2022-08-08T14:41:44.201Z,99654.72
2022-08-08T14:44:09.631Z,99646.19
2022-08-08T14:46:15.709Z,99650.69
2022-08-08T14:48:27.301Z,99653.88
2022-08-08T14:50:39.240Z,99649.16
2022-08-08T14:53:05.030Z,99661.88
2022-08-08T14:55:07.856Z,99665.00
2022-08-08T14:57:09.580Z,99662.06
2022-08-08T14:59:31.703Z,99665.72
2022-08-08T15:01:37.534Z,99667.88
2022-08-08T15:03:45.046Z,99673.69
2022-08-08T15:05:58.765Z,99668.66
2022-08-08T15:08:01.313Z,99669.91
2022-08-08T15:10:03.517Z,99663.34
2022-08-08T15:12:06.023Z,99666.38
2022-08-08T15:14:13.205Z,99680.47
2022-08-08T15:16:15.530Z,99680.56
2022-08-08T15:18:19.783Z,99671.38
2022-08-08T15:20:22.856Z,99676.63
2022-08-08T15:22:27.496Z,99683.97
2022-08-08T15:24:32.047Z,99678.56
2022-08-08T15:26:33.795Z,99686.19
2022-08-08T15:28:36.407Z,99688.19
2022-08-08T15:30:38.471Z,99682.50
2022-08-08T15:32:41.180Z,99684.91
2022-08-08T15:34:45.191Z,99683.56
2022-08-08T15:36:50.188Z,99684.44
2022-08-08T15:38:54.717Z,99683.78
2022-08-08T15:40:56.580Z,99675.22
2022-08-08T15:42:58.988Z,99676.94
2022-08-08T15:45:02.283Z,99678.63
2022-08-08T15:47:04.494Z,99671.13
2022-08-08T15:49:06.253Z,99673.25
2022-08-08T15:51:11.326Z,99679.84
2022-08-08T15:53:18.817Z,99681.63
2022-08-08T15:55:20.557Z,99680.97
2022-08-08T15:57:23.612Z,99680.19
2022-08-08T16:00:06.807Z,99682.81
2022-08-08T16:01:59.648Z,99686.88
2022-08-08T16:04:02.522Z,99693.09
2022-08-08T16:06:04.302Z,99694.38
2022-08-08T16:08:12.294Z,99691.31
2022-08-08T16:13:03.842Z,99694.56
2022-08-08T16:13:15.124Z,99697.06
2022-08-08T16:15:00.382Z,99696.06
2022-08-08T16:17:05.813Z,99696.06
2022-08-08T16:19:08.524Z,99691.19
2022-08-08T16:21:25.876Z,99701.56
2022-08-08T16:23:31.826Z,99693.44
2022-08-08T16:25:46.414Z,99704.22
2022-08-08T16:27:55.301Z,99705.16
2022-08-08T16:30:13.891Z,99699.38
2022-08-08T16:32:21.799Z,99710.31
2022-08-08T16:34:27.407Z,99713.97
2022-08-08T16:36:33.397Z,99715.03
2022-08-08T16:38:40.758Z,99719.06
2022-08-08T16:40:46.897Z,99725.00
2022-08-08T16:42:51.514Z,99724.38
2022-08-08T16:44:55.639Z,99723.75
2022-08-08T16:46:57.742Z,99718.84
2022-08-08T16:49:00.954Z,99716.78
2022-08-08T16:51:02.867Z,99714.84
2022-08-08T16:55:02.068Z,99719.56
2022-08-08T16:55:53.852Z,99713.69
2022-08-08T16:58:16.349Z,99709.22
2022-08-08T17:00:11.255Z,99709.28
2022-08-08T17:02:38.221Z,99717.47
2022-08-08T17:04:43.953Z,99719.53
2022-08-08T17:06:46.978Z,99723.03
2022-08-08T17:08:48.975Z,99729.47
2022-08-08T17:10:57.938Z,99722.38
2022-08-08T17:13:11.990Z,99723.03
2022-08-08T17:15:17.745Z,99728.84
2022-08-08T17:17:22.994Z,99732.19
2022-08-08T17:19:45.873Z,99737.59
2022-08-08T17:21:51.164Z,99745.63
2022-08-08T17:24:01.632Z,99750.56
2022-08-08T17:26:05.867Z,99755.22
2022-08-08T17:28:08.726Z,99767.38
2022-08-08T17:30:27.166Z,99767.00
2022-08-08T17:32:34.406Z,99770.25
2022-08-08T17:35:53.663Z,99764.56
2022-08-08T17:37:19.161Z,99763.16
2022-08-08T17:39:23.021Z,99764.41
2022-08-08T17:41:47.998Z,99764.88
2022-08-08T17:44:01.337Z,99772.81
2022-08-08T17:46:04.900Z,99772.47
2022-08-08T17:48:11.354Z,99760.06
2022-08-08T17:50:16.919Z,99768.41
2022-08-08T17:52:19.050Z,99764.56
2022-08-08T17:54:22.204Z,99776.78
2022-08-08T17:56:26.196Z,99774.63
2022-08-08T17:58:29.099Z,99781.44
2022-08-08T18:00:31.887Z,99776.09
2022-08-08T18:02:34.013Z,99784.63
2022-08-08T18:04:50.416Z,99783.91
2022-08-08T18:06:54.152Z,99793.88
2022-08-08T18:08:56.533Z,99794.25
2022-08-08T18:10:58.835Z,99807.28
2022-08-08T18:13:04.086Z,99807.84
2022-08-08T18:15:09.909Z,99804.22
2022-08-08T18:17:17.613Z,99810.16
2022-08-08T18:19:33.385Z,99807.97
2022-08-08T18:22:01.586Z,99805.38
2022-08-08T18:24:04.484Z,99814.97
2022-08-08T18:26:07.151Z,99815.34
2022-08-08T18:28:13.574Z,99815.72
2022-08-08T18:30:16.045Z,99819.97
2022-08-08T18:32:17.847Z,99815.66
2022-08-08T18:34:27.645Z,99816.91
2022-08-08T18:36:30.755Z,99827.06
2022-08-08T18:38:34.284Z,99820.81
2022-08-08T18:40:36.172Z,99814.41
2022-08-08T18:42:38.336Z,99816.91
2022-08-08T18:44:55.030Z,99809.31
2022-08-08T18:46:59.695Z,99817.53
2022-08-08T18:49:03.637Z,99813.59
2022-08-08T18:51:33.329Z,99820.19
2022-08-08T18:54:00.329Z,99831.50
2022-08-08T18:55:53.994Z,99827.19
2022-08-08T18:57:56.950Z,99826.91
2022-08-08T19:00:00.783Z,99829.00
2022-08-08T19:02:25.272Z,99830.91
2022-08-08T19:04:29.041Z,99838.28
2022-08-08T19:06:31.467Z,99829.94
2022-08-08T19:08:34.243Z,99831.34
2022-08-08T19:10:36.705Z,99835.38
2022-08-08T19:12:44.781Z,99833.34
2022-08-08T19:14:52.003Z,99826.63
2022-08-08T19:16:53.761Z,99827.19
2022-08-08T19:19:02.338Z,99823.94
2022-08-08T19:21:29.217Z,99821.56
2022-08-08T19:23:27.812Z,99823.34
2022-08-08T19:26:25.059Z,99824.94
2022-08-08T19:27:55.701Z,99821.88
2022-08-08T19:29:58.822Z,99819.63
2022-08-08T19:32:01.468Z,99822.47
2022-08-08T19:34:36.742Z,99824.94
2022-08-08T19:36:29.708Z,99826.38
2022-08-08T19:38:31.448Z,99823.06
2022-08-08T19:40:34.178Z,99826.34
2022-08-08T19:42:39.355Z,99829.00
2022-08-08T19:44:42.745Z,99827.16
2022-08-08T19:46:45.467Z,99827.31
2022-08-08T19:48:47.169Z,99828.28
2022-08-08T19:50:49.348Z,99830.50
2022-08-08T19:52:54.872Z,99827.03
2022-08-08T19:55:05.008Z,99824.09
2022-08-08T19:57:07.629Z,99830.88
2022-08-08T19:59:12.295Z,99827.34
2022-08-08T20:01:18.926Z,99839.97
2022-08-08T20:04:02.351Z,99838.75
2022-08-08T20:06:13.627Z,99836.16
2022-08-08T20:08:29.032Z,99831.81
2022-08-08T20:10:29.128Z,99840.50
2022-08-08T20:12:32.991Z,99840.00
2022-08-08T20:14:42.254Z,99851.56
2022-08-08T20:16:55.230Z,99854.16
2022-08-08T20:18:57.603Z,99854.03
2022-08-08T20:21:00.116Z,99846.41
2022-08-08T20:23:04.251Z,99843.28
2022-08-08T20:25:14.686Z,99848.63
2022-08-08T20:27:22.105Z,99844.66
2022-08-08T20:29:24.298Z,99853.66
2022-08-08T20:32:07.081Z,99845.53
2022-08-08T20:34:28.852Z,99847.09
2022-08-08T20:36:30.212Z,99847.41
2022-08-08T20:38:33.507Z,99846.56
2022-08-08T20:40:38.971Z,99848.31
2022-08-08T20:42:41.151Z,99850.19
2022-08-08T20:44:45.535Z,99853.00
2022-08-08T20:46:49.021Z,99861.81
2022-08-08T20:48:51.567Z,99857.34
2022-08-08T20:50:53.470Z,99865.66
2022-08-08T20:52:57.214Z,99863.22
2022-08-08T20:55:01.088Z,99864.09
2022-08-08T20:57:16.330Z,99862.69
2022-08-08T20:59:21.147Z,99862.53
2022-08-08T21:01:26.689Z,99851.66
2022-08-08T21:03:33.710Z,99857.19
2022-08-08T21:05:58.820Z,99849.22
2022-08-08T21:08:36.802Z,99860.31
2022-08-08T21:10:28.263Z,99853.59
2022-08-08T21:12:36.840Z,99860.28
2022-08-08T21:14:38.682Z,99856.16
2022-08-08T21:16:41.337Z,99852.88
2022-08-08T21:18:43.411Z,99858.56
2022-08-08T21:20:50.684Z,99856.50
2022-08-08T21:22:52.699Z,99860.81
2022-08-08T21:24:54.798Z,99857.00
2022-08-08T21:26:57.725Z,99862.19
2022-08-08T21:29:02.460Z,99862.91
2022-08-08T21:31:21.687Z,99855.63
2022-08-08T21:33:26.300Z,99850.28
2022-08-08T21:36:18.415Z,99846.81
2022-08-08T21:37:53.824Z,99853.34
2022-08-08T21:39:57.402Z,99853.91
2022-08-08T21:42:02.182Z,99848.69
2022-08-08T21:44:04.319Z,99846.47
2022-08-08T21:48:01.815Z,99847.13
2022-08-08T21:48:41.223Z,99849.38
2022-08-08T21:50:46.096Z,99846.25
2022-08-08T21:54:27.502Z,99846.41
2022-08-08T21:56:06.574Z,99842.28
2022-08-08T21:57:42.903Z,99845.41
2022-08-08T22:00:03.958Z,99838.56
2022-08-08T22:02:15.957Z,99837.97
2022-08-08T22:04:17.958Z,99832.88
2022-08-08T22:06:31.023Z,99824.81
2022-08-08T22:08:36.939Z,99820.53
2022-08-08T22:10:39.158Z,99817.59
2022-08-08T22:12:42.336Z,99825.44
2022-08-08T22:14:49.990Z,99822.88
2022-08-08T22:16:53.588Z,99813.22
2022-08-08T22:18:55.507Z,99813.78
2022-08-08T22:21:11.056Z,99812.03
2022-08-08T22:23:17.584Z,99809.97
2022-08-08T22:25:24.793Z,99804.09
2022-08-08T22:27:38.861Z,99806.84
2022-08-08T22:30:02.467Z,99804.44
2022-08-08T22:32:06.003Z,99799.75
2022-08-08T22:34:13.949Z,99802.88
2022-08-08T22:36:17.620Z,99797.53
2022-08-08T22:38:34.096Z,99790.56
2022-08-08T22:40:38.209Z,99787.97
2022-08-08T22:42:40.628Z,99783.47
2022-08-08T22:44:42.647Z,99793.81
2022-08-08T22:46:45.860Z,99791.75
2022-08-08T22:48:50.610Z,99789.47
2022-08-08T22:50:56.363Z,99799.09
2022-08-08T22:54:29.443Z,99800.50
2022-08-08T22:55:23.242Z,99791.50
2022-08-08T22:57:25.699Z,99799.09
2022-08-08T22:59:36.162Z,99801.50
2022-08-08T23:02:03.910Z,99798.06
2022-08-08T23:04:06.389Z,99798.38
2022-08-08T23:06:13.780Z,99791.63
2022-08-08T23:08:17.902Z,99793.84
2022-08-08T23:10:25.547Z,99784.16
2022-08-08T23:12:40.387Z,99785.03
2022-08-08T23:14:42.551Z,99776.69
2022-08-08T23:16:59.430Z,99773.22
2022-08-08T23:19:01.679Z,99773.91
2022-08-08T23:21:05.294Z,99773.75
2022-08-08T23:23:09.567Z,99771.84
2022-08-08T23:25:11.886Z,99766.66
2022-08-08T23:27:37.794Z,99773.19
2022-08-08T23:29:42.140Z,99769.69
2022-08-08T23:31:43.917Z,99765.53
2022-08-08T23:34:17.326Z,99758.19
2022-08-08T23:36:09.223Z,99761.00
2022-08-08T23:38:11.533Z,99756.28
2022-08-08T23:40:22.149Z,99762.00
2022-08-08T23:42:24.742Z,99754.16
2022-08-08T23:44:28.438Z,99759.66
2022-08-08T23:49:03.212Z,99773.94
2022-08-08T23:49:06.332Z,99768.81
2022-08-08T23:51:42.012Z,99764.56
2022-08-08T23:54:05.517Z,99769.16
2022-08-08T23:55:58.375Z,99760.94
2022-08-08T23:58:01.730Z,99758.03
